createdAt,value
2023-01-26T00:00:29.251Z,100438.34
2023-01-26T00:03:01.295Z,100436.61
2023-01-26T00:05:33.476Z,100441.77
2023-01-26T00:08:05.983Z,100438.36
2023-01-26T00:10:44.281Z,100439.21
2023-01-26T00:13:16.393Z,100438.35
2023-01-26T00:15:48.945Z,100440.97
2023-01-26T00:18:21.025Z,100446.95
2023-01-26T00:21:01.402Z,100440.94
2023-01-26T00:23:35.743Z,100440.10
2023-01-26T00:26:09.016Z,100441.80
2023-01-26T00:28:41.210Z,100444.39
2023-01-26T00:31:16.349Z,100439.25
2023-01-26T00:33:48.911Z,100443.52
2023-01-26T00:36:21.416Z,100434.06
2023-01-26T00:38:53.672Z,100435.80
2023-01-26T00:41:43.441Z,100444.37
2023-01-26T00:44:15.606Z,100444.37
2023-01-26T00:46:47.764Z,100437.50
2023-01-26T00:49:19.753Z,100432.36
2023-01-26T00:51:51.750Z,100446.97
2023-01-26T00:54:23.939Z,100451.27
2023-01-26T00:56:56.838Z,100444.38
2023-01-26T00:59:29.925Z,100438.39
2023-01-26T01:02:02.919Z,100428.92
2023-01-26T01:04:35.097Z,100433.20
2023-01-26T01:07:07.604Z,100434.09
2023-01-26T01:09:40.716Z,100428.91
2023-01-26T01:12:12.914Z,100424.61
2023-01-26T01:14:45.496Z,100428.93
2023-01-26T01:17:18.688Z,100431.48
2023-01-26T01:19:50.895Z,100418.59
2023-01-26T01:22:24.506Z,100420.31
2023-01-26T01:24:57.112Z,100424.61
2023-01-26T01:27:29.179Z,100421.19
2023-01-26T01:30:01.254Z,100420.34
2023-01-26T01:32:34.876Z,100424.64
2023-01-26T01:35:07.406Z,100425.50
2023-01-26T01:37:39.844Z,100421.20
2023-01-26T01:40:15.236Z,100421.20
2023-01-26T01:42:50.722Z,100414.30
2023-01-26T01:45:31.787Z,100407.44
2023-01-26T01:48:06.551Z,100408.30
2023-01-26T01:50:40.859Z,100414.31
2023-01-26T01:53:15.768Z,100421.17
2023-01-26T01:55:48.448Z,100414.30
2023-01-26T01:58:21.438Z,100414.30
2023-01-26T02:00:53.506Z,100419.47
2023-01-26T02:03:26.693Z,100410.88
2023-01-26T02:06:13.692Z,100410.86
2023-01-26T02:08:48.563Z,100410.86
2023-01-26T02:11:32.532Z,100401.41
2023-01-26T02:14:08.925Z,100397.98
2023-01-26T02:16:41.080Z,100396.25
2023-01-26T02:19:19.137Z,100400.55
2023-01-26T02:21:53.309Z,100398.84
2023-01-26T02:24:26.234Z,100384.20
2023-01-26T02:26:59.053Z,100385.07
2023-01-26T02:29:31.576Z,100383.37
2023-01-26T02:32:03.732Z,100375.63
2023-01-26T02:34:36.742Z,100377.34
2023-01-26T02:37:12.075Z,100384.20
2023-01-26T02:39:48.645Z,100373.03
2023-01-26T02:42:38.486Z,100374.73
2023-01-26T02:45:13.948Z,100365.28
2023-01-26T02:47:46.481Z,100378.19
2023-01-26T02:50:18.878Z,100379.05
2023-01-26T02:52:50.805Z,100376.47
2023-01-26T02:55:26.641Z,100367.86
2023-01-26T02:58:01.686Z,100365.28
2023-01-26T03:00:38.475Z,100353.23
2023-01-26T03:03:22.757Z,100355.81
2023-01-26T03:05:54.928Z,100356.67
2023-01-26T03:08:27.044Z,100344.64
2023-01-26T03:10:59.110Z,100359.25
2023-01-26T03:13:31.125Z,100360.13
2023-01-26T03:16:07.333Z,100364.41
2023-01-26T03:18:57.731Z,100351.52
2023-01-26T03:21:47.802Z,100338.63
2023-01-26T03:24:38.070Z,100338.62
2023-01-26T03:27:30.109Z,100335.16
2023-01-26T03:30:04.242Z,100343.78
2023-01-26T03:32:36.486Z,100341.20
2023-01-26T03:35:11.725Z,100337.75
2023-01-26T03:37:45.377Z,100349.81
2023-01-26T03:40:37.152Z,100347.23
2023-01-26T03:43:30.792Z,100346.36
2023-01-26T03:46:22.723Z,100351.50
2023-01-26T03:49:12.782Z,100355.81
2023-01-26T03:52:02.868Z,100349.78
2023-01-26T03:54:53.383Z,100344.63
2023-01-26T03:57:26.360Z,100357.53
2023-01-26T03:59:58.279Z,100356.66
2023-01-26T04:02:48.394Z,100350.62
2023-01-26T04:05:38.682Z,100351.50
2023-01-26T04:08:27.530Z,100350.62
2023-01-26T04:11:01.323Z,100353.20
2023-01-26T04:13:51.810Z,100363.53
2023-01-26T04:16:46.900Z,100362.69
2023-01-26T04:19:37.439Z,100363.53
2023-01-26T04:22:09.821Z,100357.53
2023-01-26T04:24:42.349Z,100356.66
2023-01-26T04:27:14.995Z,100357.53
2023-01-26T04:29:48.175Z,100354.92
2023-01-26T04:32:20.727Z,100354.92
2023-01-26T04:34:53.180Z,100351.47
2023-01-26T04:37:27.740Z,100360.05
2023-01-26T04:40:01.448Z,100356.63
2023-01-26T04:42:34.763Z,100348.05
2023-01-26T04:45:09.359Z,100348.92
2023-01-26T04:47:41.980Z,100348.05
2023-01-26T04:50:14.596Z,100350.62
2023-01-26T04:52:47.322Z,100355.77
2023-01-26T04:55:20.778Z,100356.63
2023-01-26T04:57:53.097Z,100343.73
2023-01-26T05:00:26.080Z,100342.02
2023-01-26T05:03:00.945Z,100335.14
2023-01-26T05:05:34.403Z,100339.44
2023-01-26T05:08:07.755Z,100336.82
2023-01-26T05:10:40.110Z,100348.02
2023-01-26T05:13:22.948Z,100344.59
2023-01-26T05:16:09.422Z,100335.14
2023-01-26T05:18:47.900Z,100338.56
2023-01-26T05:21:27.739Z,100330.82
2023-01-26T05:24:00.951Z,100332.56
2023-01-26T05:26:35.430Z,100323.95
2023-01-26T05:29:09.318Z,100338.56
2023-01-26T05:31:42.213Z,100338.56
2023-01-26T05:34:15.134Z,100335.14
2023-01-26T05:36:47.533Z,100327.40
2023-01-26T05:39:20.276Z,100337.72
2023-01-26T05:41:53.039Z,100340.30
2023-01-26T05:44:27.161Z,100334.30
2023-01-26T05:47:00.167Z,100342.05
2023-01-26T05:49:33.380Z,100358.34
2023-01-26T05:52:09.855Z,100342.86
2023-01-26T05:54:44.084Z,100342.02
2023-01-26T05:57:17.847Z,100349.73
2023-01-26T05:59:51.984Z,100347.98
2023-01-26T06:02:24.269Z,100338.53
2023-01-26T06:04:56.943Z,100331.66
2023-01-26T06:07:29.201Z,100335.95
2023-01-26T06:10:15.343Z,100322.17
2023-01-26T06:12:48.197Z,100326.50
2023-01-26T06:15:21.708Z,100324.70
2023-01-26T06:17:56.001Z,100335.08
2023-01-26T06:20:28.538Z,100331.63
2023-01-26T06:23:02.665Z,100326.46
2023-01-26T06:25:36.464Z,100320.42
2023-01-26T06:28:09.454Z,100313.55
2023-01-26T06:30:41.991Z,100323.88
2023-01-26T06:33:15.901Z,100322.13
2023-01-26T06:35:48.376Z,100303.22
2023-01-26T06:38:22.276Z,100301.46
2023-01-26T06:40:54.891Z,100293.70
2023-01-26T06:43:28.312Z,100302.30
2023-01-26T06:46:03.037Z,100300.59
2023-01-26T06:48:37.082Z,100310.91
2023-01-26T06:51:21.339Z,100316.03
2023-01-26T06:53:59.950Z,100310.03
2023-01-26T06:56:43.967Z,100310.88
2023-01-26T06:59:37.443Z,100309.16
2023-01-26T07:02:26.047Z,100318.61
2023-01-26T07:04:58.758Z,100299.66
2023-01-26T07:07:32.653Z,100304.83
2023-01-26T07:10:07.933Z,100302.23
2023-01-26T07:12:41.840Z,100307.39
2023-01-26T07:15:15.144Z,100295.30
2023-01-26T07:17:47.348Z,100305.63
2023-01-26T07:20:20.071Z,100304.75
2023-01-26T07:22:53.415Z,100309.86
2023-01-26T07:25:27.054Z,100310.67
2023-01-26T07:28:02.676Z,100315.84
2023-01-26T07:30:35.276Z,100299.47
2023-01-26T07:33:10.978Z,100301.21
2023-01-26T07:35:43.273Z,100303.75
2023-01-26T07:38:15.910Z,100302.05
2023-01-26T07:40:48.036Z,100303.74
2023-01-26T07:43:20.679Z,100308.85
2023-01-26T07:45:55.725Z,100307.12
2023-01-26T07:48:30.543Z,100304.48
2023-01-26T07:51:04.714Z,100304.47
2023-01-26T07:53:38.482Z,100307.87
2023-01-26T07:56:14.112Z,100312.16
2023-01-26T07:58:52.929Z,100301.00
2023-01-26T08:01:25.962Z,100299.30
2023-01-26T08:03:58.735Z,100284.61
2023-01-26T08:06:33.094Z,100288.89
2023-01-26T08:09:05.727Z,100284.57
2023-01-26T08:11:38.976Z,100292.28
2023-01-26T08:14:12.047Z,100292.27
2023-01-26T08:16:45.677Z,100284.50
2023-01-26T08:19:18.205Z,100289.66
2023-01-26T08:21:52.028Z,100279.30
2023-01-26T08:24:24.618Z,100268.00
2023-01-26T08:26:57.822Z,100267.11
2023-01-26T08:29:30.932Z,100268.86
2023-01-26T08:32:03.342Z,100284.38
2023-01-26T08:34:35.747Z,100273.17
2023-01-26T08:37:08.024Z,100277.46
2023-01-26T08:39:40.460Z,100271.45
2023-01-26T08:42:13.429Z,100277.45
2023-01-26T08:44:45.563Z,100269.68
2023-01-26T08:47:17.957Z,100261.91
2023-01-26T08:49:50.093Z,100267.06
2023-01-26T08:52:22.364Z,100266.11
2023-01-26T08:54:54.842Z,100264.41
2023-01-26T08:57:27.284Z,100265.27
2023-01-26T08:59:59.662Z,100266.09
2023-01-26T09:02:33.676Z,100256.59
2023-01-26T09:05:06.609Z,100251.32
2023-01-26T09:07:39.864Z,100249.65
2023-01-26T09:10:13.277Z,100249.65
2023-01-26T09:12:45.658Z,100250.51
2023-01-26T09:15:18.701Z,100248.76
2023-01-26T09:17:51.960Z,100254.80
2023-01-26T09:20:25.062Z,100249.56
2023-01-26T09:22:57.999Z,100244.37
2023-01-26T09:25:30.265Z,100248.72
2023-01-26T09:28:05.665Z,100240.99
2023-01-26T09:30:39.265Z,100247.05
2023-01-26T09:33:11.769Z,100243.59
2023-01-26T09:35:44.320Z,100243.57
2023-01-26T09:38:16.887Z,100243.58
2023-01-26T09:40:58.298Z,100246.19
2023-01-26T09:43:48.286Z,100246.19
2023-01-26T09:46:29.181Z,100247.86
2023-01-26T09:49:12.816Z,100245.23
2023-01-26T09:51:47.794Z,100238.29
2023-01-26T09:54:26.496Z,100233.95
2023-01-26T09:57:00.720Z,100238.29
2023-01-26T09:59:35.374Z,100229.71
2023-01-26T10:02:29.535Z,100239.02
2023-01-26T10:05:04.577Z,100229.63
2023-01-26T10:07:36.645Z,100232.20
2023-01-26T10:10:10.780Z,100222.77
2023-01-26T10:12:43.984Z,100228.80
2023-01-26T10:15:39.270Z,100232.22
2023-01-26T10:18:26.358Z,100218.45
2023-01-26T10:21:00.859Z,100217.58
2023-01-26T10:23:35.170Z,100223.60
2023-01-26T10:26:22.671Z,100219.22
2023-01-26T10:28:54.979Z,100216.63
2023-01-26T10:31:30.437Z,100221.84
2023-01-26T10:34:11.542Z,100223.48
2023-01-26T10:36:46.143Z,100215.79
2023-01-26T10:39:19.491Z,100215.01
2023-01-26T10:42:03.561Z,100206.45
2023-01-26T10:44:38.680Z,100199.48
2023-01-26T10:47:18.554Z,100206.45
2023-01-26T10:49:50.867Z,100197.91
2023-01-26T10:52:28.403Z,100197.94
2023-01-26T10:55:12.972Z,100192.81
2023-01-26T10:57:45.433Z,100190.22
2023-01-26T11:00:29.685Z,100191.91
2023-01-26T11:03:08.966Z,100185.04
2023-01-26T11:05:41.290Z,100182.39
2023-01-26T11:08:36.123Z,100177.11
2023-01-26T11:11:11.843Z,100177.19
2023-01-26T11:13:44.191Z,100174.59
2023-01-26T11:16:25.578Z,100171.11
2023-01-26T11:19:00.657Z,100179.70
2023-01-26T11:21:47.699Z,100171.08
2023-01-26T11:24:31.498Z,100170.23
2023-01-26T11:27:39.379Z,100159.95
2023-01-26T11:30:37.987Z,100159.04
2023-01-26T11:33:21.954Z,100154.83
2023-01-26T11:36:16.225Z,100153.23
2023-01-26T11:39:05.980Z,100157.62
2023-01-26T11:41:47.123Z,100156.77
2023-01-26T11:44:38.114Z,100157.69
2023-01-26T11:47:16.066Z,100154.30
2023-01-26T11:50:00.319Z,100157.77
2023-01-26T11:52:54.405Z,100151.73
2023-01-26T11:55:50.036Z,100150.91
2023-01-26T11:58:27.839Z,100146.66
2023-01-26T12:01:02.917Z,100142.37
2023-01-26T12:03:43.578Z,100147.58
2023-01-26T12:06:33.626Z,100152.81
2023-01-26T12:09:23.431Z,100151.95
2023-01-26T12:11:58.457Z,100148.56
2023-01-26T12:14:33.628Z,100145.98
2023-01-26T12:17:40.344Z,100147.73
2023-01-26T12:20:27.683Z,100151.17
2023-01-26T12:23:11.645Z,100152.92
2023-01-26T12:25:49.497Z,100156.34
2023-01-26T12:28:36.020Z,100148.63
2023-01-26T12:31:19.635Z,100148.63
2023-01-26T12:33:54.892Z,100144.28
2023-01-26T12:36:39.025Z,100140.78
2023-01-26T12:39:14.553Z,100141.69
2023-01-26T12:41:58.625Z,100145.95
2023-01-26T12:44:45.644Z,100147.66
2023-01-26T12:47:32.616Z,100151.94
2023-01-26T12:50:25.306Z,100140.73
2023-01-26T12:53:12.014Z,100151.05
2023-01-26T12:55:47.294Z,100141.56
2023-01-26T12:58:30.986Z,100137.22
2023-01-26T13:01:09.047Z,100141.48
2023-01-26T13:04:02.167Z,100135.50
2023-01-26T13:06:35.125Z,100147.56
2023-01-26T13:09:23.758Z,100151.03
2023-01-26T13:12:02.274Z,100144.98
2023-01-26T13:14:46.280Z,100143.27
2023-01-26T13:17:22.418Z,100144.95
2023-01-26T13:20:00.376Z,100140.66
2023-01-26T13:22:41.640Z,100152.75
2023-01-26T13:25:33.837Z,100152.71
2023-01-26T13:28:09.225Z,100159.66
2023-01-26T13:30:46.495Z,100156.20
2023-01-26T13:33:24.681Z,100148.43
2023-01-26T13:35:58.266Z,100153.62
2023-01-26T13:38:42.974Z,100152.75
2023-01-26T13:41:23.111Z,100140.69
2023-01-26T13:44:00.804Z,100150.17
2023-01-26T13:46:42.282Z,100152.75
2023-01-26T13:49:26.728Z,100151.86
2023-01-26T13:51:58.726Z,100144.98
2023-01-26T13:54:31.123Z,100146.66
2023-01-26T13:57:08.565Z,100149.23
2023-01-26T13:59:52.529Z,100148.34
2023-01-26T14:02:34.195Z,100157.80
2023-01-26T14:05:06.926Z,100152.64
2023-01-26T14:07:45.926Z,100150.05
2023-01-26T14:10:22.228Z,100151.79
2023-01-26T14:12:57.687Z,100146.53
2023-01-26T14:15:32.883Z,100144.82
2023-01-26T14:18:06.595Z,100143.06
2023-01-26T14:20:40.936Z,100148.22
2023-01-26T14:23:21.865Z,100146.52
2023-01-26T14:26:03.389Z,100143.86
2023-01-26T14:28:39.129Z,100147.28
2023-01-26T14:31:25.815Z,100145.61
2023-01-26T14:34:00.588Z,100151.67
2023-01-26T14:36:35.653Z,100147.39
2023-01-26T14:39:22.207Z,100147.39
2023-01-26T14:41:54.692Z,100142.16
2023-01-26T14:44:27.254Z,100139.58
2023-01-26T14:47:05.090Z,100146.53
2023-01-26T14:49:55.681Z,100137.98
2023-01-26T14:52:30.548Z,100131.95
2023-01-26T14:55:20.648Z,100138.84
2023-01-26T14:57:54.134Z,100136.31
2023-01-26T15:00:37.610Z,100133.75
2023-01-26T15:03:15.566Z,100133.75
2023-01-26T15:05:47.768Z,100132.93
2023-01-26T15:08:23.961Z,100132.93
2023-01-26T15:11:21.097Z,100127.78
2023-01-26T15:13:57.248Z,100128.59
2023-01-26T15:16:29.342Z,100128.58
2023-01-26T15:19:08.130Z,100138.97
2023-01-26T15:21:44.324Z,100126.05
2023-01-26T15:24:17.617Z,100132.05
2023-01-26T15:26:51.575Z,100136.30
2023-01-26T15:29:32.798Z,100135.41
2023-01-26T15:32:05.759Z,100126.73
2023-01-26T15:34:42.543Z,100133.69
2023-01-26T15:37:32.916Z,100125.98
2023-01-26T15:40:05.694Z,100130.34
2023-01-26T15:42:38.267Z,100132.05
2023-01-26T15:45:25.770Z,100126.87
2023-01-26T15:47:58.132Z,100125.27
2023-01-26T15:50:30.411Z,100126.16
2023-01-26T15:53:02.740Z,100127.88
2023-01-26T15:55:35.719Z,100119.36
2023-01-26T15:58:08.892Z,100123.72
2023-01-26T16:00:41.232Z,100119.44
2023-01-26T16:03:16.091Z,100109.14
2023-01-26T16:05:49.242Z,100119.47
2023-01-26T16:08:22.199Z,100116.06
2023-01-26T16:10:57.282Z,100120.37
2023-01-26T16:13:29.852Z,100118.72
2023-01-26T16:16:04.402Z,100110.09
2023-01-26T16:18:37.082Z,100114.41
2023-01-26T16:21:20.904Z,100116.17
2023-01-26T16:23:53.007Z,100116.17
2023-01-26T16:26:27.362Z,100120.47
2023-01-26T16:29:00.181Z,100113.58
2023-01-26T16:31:36.902Z,100114.41
2023-01-26T16:34:11.049Z,100116.95
2023-01-26T16:36:43.584Z,100124.63
2023-01-26T16:39:15.724Z,100121.20
2023-01-26T16:41:48.407Z,100120.27
2023-01-26T16:44:22.093Z,100124.60
2023-01-26T16:46:54.699Z,100117.67
2023-01-26T16:49:27.175Z,100117.66
2023-01-26T16:51:59.498Z,100122.83
2023-01-26T16:54:31.600Z,100116.77
2023-01-26T16:57:03.597Z,100120.20
2023-01-26T16:59:35.814Z,100119.23
2023-01-26T17:02:13.349Z,100128.77
2023-01-26T17:04:46.127Z,100127.95
2023-01-26T17:07:18.618Z,100126.22
2023-01-26T17:09:51.155Z,100126.22
2023-01-26T17:12:23.233Z,100116.76
2023-01-26T17:14:55.420Z,100111.59
2023-01-26T17:17:27.506Z,100119.34
2023-01-26T17:20:17.613Z,100121.09
2023-01-26T17:22:35.366Z,100119.41
2023-01-26T17:25:08.317Z,100115.08
2023-01-26T17:27:40.903Z,100118.55
2023-01-26T17:30:27.614Z,100115.08
2023-01-26T17:33:00.053Z,100114.27
2023-01-26T17:35:32.205Z,100116.88
2023-01-26T17:38:04.642Z,100110.03
2023-01-26T17:40:36.890Z,100116.08
2023-01-26T17:43:09.245Z,100119.56
2023-01-26T17:45:41.585Z,100121.27
2023-01-26T17:48:14.998Z,100116.14
2023-01-26T17:50:54.987Z,100119.58
2023-01-26T17:53:28.146Z,100123.92
2023-01-26T17:56:00.633Z,100114.50
2023-01-26T17:58:32.931Z,100121.42
2023-01-26T18:01:06.301Z,100117.14
2023-01-26T18:03:43.498Z,100115.44
2023-01-26T18:06:16.390Z,100112.86
2023-01-26T18:08:48.729Z,100105.13
2023-01-26T18:11:21.027Z,100106.84
2023-01-26T18:13:55.474Z,100103.44
2023-01-26T18:16:28.119Z,100102.55
2023-01-26T18:19:04.660Z,100097.39
2023-01-26T18:21:37.078Z,100098.27
2023-01-26T18:24:09.383Z,100105.95
2023-01-26T18:26:41.664Z,100099.86
2023-01-26T18:29:14.899Z,100092.11
2023-01-26T18:31:48.369Z,100093.83
2023-01-26T18:34:20.715Z,100092.13
2023-01-26T18:36:52.900Z,100092.13
2023-01-26T18:39:24.908Z,100091.30
2023-01-26T18:41:56.876Z,100086.98
2023-01-26T18:44:28.952Z,100078.39
2023-01-26T18:47:00.900Z,100082.70
2023-01-26T18:49:32.959Z,100083.50
2023-01-26T18:52:05.291Z,100081.77
2023-01-26T18:54:37.636Z,100075.75
2023-01-26T18:57:10.611Z,100081.78
2023-01-26T18:59:43.008Z,100087.75
2023-01-26T19:02:16.417Z,100077.50
2023-01-26T19:04:48.512Z,100072.28
2023-01-26T19:07:21.266Z,100069.75
2023-01-26T19:09:53.641Z,100072.28
2023-01-26T19:12:25.856Z,100074.02
2023-01-26T19:14:58.134Z,100082.67
2023-01-26T19:17:30.480Z,100080.08
2023-01-26T19:20:04.157Z,100074.05
2023-01-26T19:22:35.878Z,100076.70
2023-01-26T19:25:08.240Z,100080.92
2023-01-26T19:27:40.661Z,100078.41
2023-01-26T19:30:13.415Z,100063.79
2023-01-26T19:33:03.522Z,100071.53
2023-01-26T19:35:38.278Z,100072.38
2023-01-26T19:38:10.139Z,100074.11
2023-01-26T19:40:43.975Z,100071.53
2023-01-26T19:43:18.647Z,100085.25
2023-01-26T19:45:55.911Z,100069.78
2023-01-26T19:48:29.526Z,100066.31
2023-01-26T19:51:04.660Z,100072.36
2023-01-26T19:53:39.887Z,100070.66
2023-01-26T19:56:14.116Z,100070.63
2023-01-26T19:58:51.339Z,100068.07
2023-01-26T20:01:24.436Z,100069.80
2023-01-26T20:04:00.231Z,100064.69
2023-01-26T20:06:34.999Z,100061.22
2023-01-26T20:09:08.763Z,100066.40
2023-01-26T20:11:40.977Z,100067.27
2023-01-26T20:14:12.988Z,100062.92
2023-01-26T20:16:45.342Z,100063.78
2023-01-26T20:19:18.310Z,100068.07
2023-01-26T20:21:51.198Z,100063.79
2023-01-26T20:24:23.287Z,100060.33
2023-01-26T20:26:55.608Z,100062.92
2023-01-26T20:29:27.645Z,100056.88
2023-01-26T20:32:00.385Z,100070.67
2023-01-26T20:34:32.440Z,100068.09
2023-01-26T20:37:04.937Z,100070.66
2023-01-26T20:39:37.327Z,100068.08
2023-01-26T20:42:10.977Z,100071.53
2023-01-26T20:44:44.523Z,100071.48
2023-01-26T20:47:16.489Z,100068.89
2023-01-26T20:49:48.405Z,100068.01
2023-01-26T20:52:21.918Z,100069.76
2023-01-26T20:54:54.035Z,100067.11
2023-01-26T20:57:26.119Z,100062.83
2023-01-26T20:59:58.044Z,100062.83
2023-01-26T21:02:30.103Z,100059.41
2023-01-26T21:05:02.801Z,100067.16
2023-01-26T21:07:34.865Z,100061.14
2023-01-26T21:10:07.343Z,100060.31
2023-01-26T21:12:39.540Z,100061.16
2023-01-26T21:15:12.207Z,100049.11
2023-01-26T21:17:44.308Z,100057.73
2023-01-26T21:20:16.625Z,100055.16
2023-01-26T21:22:48.834Z,100057.76
2023-01-26T21:25:21.253Z,100069.80
2023-01-26T21:27:56.465Z,100059.47
2023-01-26T21:30:28.651Z,100062.94
2023-01-26T21:33:00.708Z,100055.19
2023-01-26T21:35:32.782Z,100050.91
2023-01-26T21:38:04.891Z,100053.48
2023-01-26T21:40:37.072Z,100054.37
2023-01-26T21:43:09.121Z,100062.12
2023-01-26T21:45:54.068Z,100064.70
2023-01-26T21:48:31.083Z,100069.86
2023-01-26T21:51:21.506Z,100061.24
2023-01-26T21:53:53.640Z,100062.11
2023-01-26T21:56:25.588Z,100061.20
2023-01-26T21:59:04.477Z,100050.87
2023-01-26T22:01:48.336Z,100052.60
2023-01-26T22:04:23.644Z,100061.23
2023-01-26T22:06:56.865Z,100062.11
2023-01-26T22:09:30.109Z,100063.00
2023-01-26T22:12:03.087Z,100056.95
2023-01-26T22:14:35.201Z,100058.71
2023-01-26T22:17:07.499Z,100059.55
2023-01-26T22:19:39.903Z,100057.83
2023-01-26T22:22:12.793Z,100063.83
2023-01-26T22:24:44.967Z,100059.54
2023-01-26T22:27:17.069Z,100056.07
2023-01-26T22:29:49.284Z,100066.41
2023-01-26T22:32:21.464Z,100057.84
2023-01-26T22:34:53.688Z,100055.27
2023-01-26T22:37:25.651Z,100062.98
2023-01-26T22:39:58.048Z,100057.02
2023-01-26T22:42:30.514Z,100061.32
2023-01-26T22:45:02.587Z,100058.71
2023-01-26T22:47:36.278Z,100053.59
2023-01-26T22:50:08.932Z,100057.07
2023-01-26T22:52:40.994Z,100051.09
2023-01-26T22:55:13.171Z,100057.95
2023-01-26T22:57:45.492Z,100055.38
2023-01-26T23:00:17.933Z,100051.92
2023-01-26T23:02:50.177Z,100056.19
2023-01-26T23:05:22.379Z,100047.63
2023-01-26T23:07:54.772Z,100052.80
2023-01-26T23:10:27.201Z,100049.38
2023-01-26T23:12:59.206Z,100054.58
2023-01-26T23:15:31.144Z,100058.05
2023-01-26T23:18:03.192Z,100065.79
2023-01-26T23:20:35.428Z,100065.78
2023-01-26T23:23:07.463Z,100064.95
2023-01-26T23:25:51.587Z,100053.76
2023-01-26T23:28:24.414Z,100058.09
2023-01-26T23:30:57.983Z,100061.42
2023-01-26T23:33:32.021Z,100058.13
2023-01-26T23:36:05.041Z,100059.01
2023-01-26T23:38:37.617Z,100060.75
2023-01-26T23:41:09.803Z,100060.76
2023-01-26T23:43:42.082Z,100059.88
2023-01-26T23:46:14.261Z,100061.59
2023-01-26T23:48:46.268Z,100049.55
2023-01-26T23:51:18.331Z,100055.55
2023-01-26T23:53:50.477Z,100050.43
2023-01-26T23:56:22.618Z,100057.30
2023-01-26T23:58:55.015Z,100053.02
